Clearmont, Wyoming
Current Conditions -  °F | °C
As of 4:53 PM on Sunday 25 Jan 2015 (Local Time) from KBYG Reporting Station
NA  
Wind Chill: 49°   Ceiling: NA
Heat Index: 49°   Visibility: 10mi
Dew Point: 30°   Wind: 0mph
Humidity: 48%   Direction: NA
Pressure: 30.06"   Gusts: NA
Location:  44.64°N, 106.38°W
Report Text: KBYG 252353Z AUTO 00000KT 10SM 09/M01 A3006 RMK AO2 SLP178 T00941011 10139 20072 51010 $
Loading
Personal Weather Stations






























Interactive Weather Map New forecast layout! Learn more

10-Day Weather Forecast

Advertisements
Track Severe Weather on mobile